Time;durP1;ratioP1;P1;durP2;ratioP2;P2;SDS_P1;SDS_P2;PMS_P1;PMS_P2;Temp;Humidity;BMP_temperature;BMP_pressure;BME280_temperature;BME280_humidity;BME280_pressure;Samples;Min_cycle;Max_cycle;Signal;HPM_P1;HPM_P2
2022/05/12 00:01:42;;;;;;;8.30;3.80;;;17.10;99.90;;;;;;5047670;28;21439;-75
2022/05/12 00:04:10;;;;;;;7.10;4.10;;;17.20;99.90;;;;;;5059699;28;20456;-76
2022/05/12 00:06:37;;;;;;;8.50;4.10;;;17.30;99.90;;;;;;5051204;28;20458;-75
2022/05/12 00:09:04;;;;;;;7.67;4.13;;;17.30;99.90;;;;;;5051849;28;22156;-76
2022/05/12 00:11:31;;;;;;;4.43;2.77;;;17.30;99.90;;;;;;5054057;28;20508;-75
2022/05/12 00:13:58;;;;;;;4.63;3.53;;;17.30;99.90;;;;;;5062446;28;20492;-75
2022/05/12 00:16:25;;;;;;;7.70;3.90;;;17.20;99.90;;;;;;5060151;28;20459;-74
2022/05/12 00:18:53;;;;;;;5.93;3.20;;;17.10;99.90;;;;;;5050988;28;20463;-75
2022/05/12 00:21:20;;;;;;;6.90;3.30;;;17.00;99.90;;;;;;5052851;28;20483;-76
2022/05/12 00:23:56;;;;;;;4.10;3.13;;;16.90;99.90;;;;;;5051789;28;20901;-75
2022/05/12 00:26:26;;;;;;;9.27;3.10;;;16.90;99.90;;;;;;5046868;28;20925;-75
2022/05/12 00:28:52;;;;;;;5.23;3.83;;;16.90;99.90;;;;;;5055143;28;20541;-75
2022/05/12 00:31:20;;;;;;;4.80;2.93;;;16.90;99.90;;;;;;5043140;28;21017;-74
2022/05/12 00:33:47;;;;;;;5.83;3.17;;;16.70;99.90;;;;;;5053147;28;20477;-75
2022/05/12 00:36:15;;;;;;;8.50;2.70;;;16.60;99.90;;;;;;5050783;28;20466;-74
2022/05/12 00:38:42;;;;;;;3.20;2.03;;;16.50;99.90;;;;;;5049253;28;20514;-75
2022/05/12 00:41:10;;;;;;;3.40;2.57;;;16.50;99.90;;;;;;5058894;28;20959;-76
2022/05/12 00:43:41;;;;;;;4.27;2.30;;;16.50;99.90;;;;;;5051780;28;21019;-76
2022/05/12 00:46:12;;;;;;;3.83;2.40;;;16.40;99.90;;;;;;5052163;28;20551;-76
2022/05/12 00:48:39;;;;;;;7.37;2.77;;;16.20;99.90;;;;;;5062375;28;20454;-75
2022/05/12 00:51:08;;;;;;;4.20;2.63;;;16.10;99.90;;;;;;5049393;28;20457;-75
2022/05/12 00:53:37;;;;;;;4.23;2.07;;;16.10;99.90;;;;;;5055339;28;20489;-74
2022/05/12 00:56:06;;;;;;;3.33;2.50;;;16.00;99.90;;;;;;5060403;28;20467;-76
2022/05/12 00:58:35;;;;;;;6.20;2.33;;;16.00;99.90;;;;;;5052356;28;22136;-74
2022/05/12 01:01:04;;;;;;;7.40;2.23;;;16.00;99.90;;;;;;5052164;28;20477;-75
2022/05/12 01:03:32;;;;;;;2.47;1.90;;;16.10;99.90;;;;;;5055740;28;20463;-76
2022/05/12 01:06:03;;;;;;;5.37;1.70;;;15.80;99.90;;;;;;5056167;28;20582;-73
2022/05/12 01:08:32;;;;;;;2.90;2.37;;;15.60;99.90;;;;;;5054553;28;20433;-75
2022/05/12 01:11:06;;;;;;;5.30;2.37;;;15.50;99.90;;;;;;5051967;28;20544;-75
2022/05/12 01:13:33;;;;;;;2.53;1.40;;;15.40;99.90;;;;;;5057922;28;20482;-75
2022/05/12 01:16:04;;;;;;;1.73;1.30;;;15.50;99.90;;;;;;5062719;28;20517;-76
2022/05/12 01:18:32;;;;;;;2.60;2.07;;;15.40;99.90;;;;;;5057385;28;20528;-75
2022/05/12 01:21:00;;;;;;;4.27;3.10;;;15.30;99.90;;;;;;5061654;28;20458;-74
2022/05/12 01:23:31;;;;;;;3.40;2.53;;;15.20;99.90;;;;;;5053889;28;20459;-75
2022/05/12 01:26:01;;;;;;;4.00;2.73;;;15.20;99.90;;;;;;5057438;28;20457;-73
2022/05/12 01:28:28;;;;;;;3.20;2.90;;;15.20;99.90;;;;;;5059110;28;20459;-74
2022/05/12 01:30:58;;;;;;;2.83;2.20;;;15.10;99.90;;;;;;5045926;28;20996;-73
2022/05/12 01:33:26;;;;;;;5.77;2.87;;;14.90;99.90;;;;;;5053315;28;20474;-75
2022/05/12 01:35:52;;;;;;;6.10;2.20;;;14.90;99.90;;;;;;5043278;28;20464;-75
2022/05/12 01:38:19;;;;;;;3.50;2.00;;;14.90;99.90;;;;;;5046385;28;20484;-75
2022/05/12 01:40:47;;;;;;;7.03;1.93;;;14.80;99.90;;;;;;5050778;28;20468;-75
2022/05/12 01:43:16;;;;;;;2.60;2.00;;;14.80;99.90;;;;;;5042394;28;20474;-75
2022/05/12 01:45:43;;;;;;;2.07;1.57;;;14.70;99.90;;;;;;5050558;28;21013;-74
2022/05/12 01:48:13;;;;;;;6.57;2.50;;;14.60;99.90;;;;;;5042511;28;20452;-76
2022/05/12 01:50:42;;;;;;;3.80;1.90;;;14.50;99.90;;;;;;5046097;28;20458;-76
2022/05/12 01:53:10;;;;;;;5.83;2.23;;;14.30;99.90;;;;;;5051181;28;20476;-74
2022/05/12 01:55:38;;;;;;;4.17;2.60;;;14.20;99.90;;;;;;5037599;28;20821;-74
2022/05/12 01:58:07;;;;;;;2.57;1.57;;;14.20;99.90;;;;;;5055733;28;20509;-75
2022/05/12 02:00:34;;;;;;;3.43;2.13;;;14.20;99.90;;;;;;5050762;28;20484;-74
2022/05/12 02:03:01;;;;;;;4.17;3.67;;;14.10;99.90;;;;;;5051839;28;20528;-75
2022/05/12 02:05:31;;;;;;;4.70;1.87;;;14.10;99.90;;;;;;5047569;28;20464;-75
2022/05/12 02:07:58;;;;;;;3.63;2.00;;;14.00;99.90;;;;;;5053906;28;20440;-75
2022/05/12 02:10:29;;;;;;;4.80;2.07;;;14.00;99.90;;;;;;5055565;28;20456;-75
2022/05/12 02:12:56;;;;;;;4.97;2.63;;;14.00;99.90;;;;;;5067571;28;20482;-76
2022/05/12 02:15:25;;;;;;;5.27;1.63;;;14.00;99.90;;;;;;5053327;28;20467;-75
2022/05/12 02:17:52;;;;;;;1.57;1.47;;;14.00;99.90;;;;;;5055915;28;20550;-76
2022/05/12 02:20:21;;;;;;;1.73;1.50;;;14.00;99.90;;;;;;5053107;28;20437;-75
2022/05/12 02:22:49;;;;;;;2.80;1.73;;;13.90;99.90;;;;;;5048400;28;20453;-75
2022/05/12 02:25:16;;;;;;;5.33;2.17;;;13.90;99.90;;;;;;5060751;28;20482;-75
2022/05/12 02:27:46;;;;;;;4.33;2.80;;;13.90;99.90;;;;;;5055111;28;20478;-74
2022/05/12 02:30:17;;;;;;;5.67;2.10;;;14.00;99.90;;;;;;5055205;28;21404;-76
2022/05/12 02:32:45;;;;;;;4.43;3.23;;;14.00;99.90;;;;;;5053033;28;21105;-76
2022/05/12 02:35:12;;;;;;;5.30;2.40;;;14.00;99.90;;;;;;5049756;28;20474;-76
2022/05/12 02:37:40;;;;;;;5.27;2.00;;;14.20;99.90;;;;;;5050130;28;20590;-75
2022/05/12 02:40:09;;;;;;;2.93;1.80;;;14.20;99.90;;;;;;5052829;28;20478;-74
2022/05/12 02:42:35;;;;;;;1.70;1.50;;;14.10;99.90;;;;;;5048145;28;20480;-76
2022/05/12 02:45:02;;;;;;;7.87;2.03;;;14.10;99.90;;;;;;5052385;28;20769;-75
2022/05/12 02:47:29;;;;;;;2.83;1.60;;;14.00;99.90;;;;;;5051882;28;20473;-76
2022/05/12 02:49:57;;;;;;;2.90;2.40;;;14.00;99.90;;;;;;5046246;28;20459;-76
2022/05/12 02:52:24;;;;;;;7.20;1.80;;;13.90;99.90;;;;;;5054074;28;20496;-76
2022/05/12 02:54:50;;;;;;;6.27;2.90;;;13.90;99.90;;;;;;5048967;28;20507;-77
2022/05/12 02:57:17;;;;;;;9.53;1.90;;;14.00;99.90;;;;;;5037504;28;20453;-77
2022/05/12 02:59:44;;;;;;;2.90;2.20;;;13.90;99.90;;;;;;5042147;28;20520;-75
2022/05/12 03:02:11;;;;;;;2.50;2.30;;;13.90;99.90;;;;;;5049778;28;21153;-76
2022/05/12 03:04:38;;;;;;;2.33;2.00;;;13.70;99.90;;;;;;5048744;28;20452;-77
2022/05/12 03:07:06;;;;;;;2.63;1.77;;;13.60;99.90;;;;;;5044019;28;20787;-75
2022/05/12 03:09:33;;;;;;;2.73;1.80;;;13.50;99.90;;;;;;5038281;28;21408;-75
2022/05/12 03:11:59;;;;;;;4.33;2.63;;;13.70;99.90;;;;;;5041307;28;20701;-77
2022/05/12 03:14:26;;;;;;;3.53;1.87;;;13.80;99.90;;;;;;5053528;28;20483;-76
2022/05/12 03:16:53;;;;;;;5.33;2.00;;;13.90;99.90;;;;;;5049191;28;20461;-76
2022/05/12 03:19:21;;;;;;;6.20;2.03;;;13.90;99.90;;;;;;5043864;28;21601;-76
2022/05/12 03:21:48;;;;;;;2.33;1.80;;;13.80;99.90;;;;;;5046981;28;20789;-75
2022/05/12 03:24:17;;;;;;;7.33;1.50;;;13.70;99.90;;;;;;5053818;28;20433;-75
2022/05/12 03:26:44;;;;;;;2.57;1.60;;;13.80;99.90;;;;;;5052598;28;20844;-77
2022/05/12 03:29:11;;;;;;;4.13;1.73;;;13.80;99.90;;;;;;5046157;28;20542;-77
2022/05/12 03:31:37;;;;;;;5.17;1.73;;;13.70;99.90;;;;;;5048190;28;20661;-76
2022/05/12 03:34:06;;;;;;;4.70;2.00;;;13.70;99.90;;;;;;5035059;28;20476;-74
2022/05/12 03:36:35;;;;;;;1.70;1.40;;;13.70;99.90;;;;;;5049224;28;20468;-77
2022/05/12 03:39:02;;;;;;;4.27;1.80;;;13.70;99.90;;;;;;5046476;28;20441;-75
2022/05/12 03:41:31;;;;;;;2.63;2.30;;;13.70;99.90;;;;;;5049895;28;20531;-77
2022/05/12 03:46:42;;;;;;;2.80;2.10;;;13.80;99.90;;;;;;5035235;28;20991;-76
2022/05/12 03:49:09;;;;;;;3.23;2.20;;;13.80;99.90;;;;;;5042117;28;20832;-78
2022/05/12 03:51:36;;;;;;;7.00;2.00;;;13.70;99.90;;;;;;5045926;28;20486;-76
2022/05/12 03:54:05;;;;;;;6.13;1.93;;;13.70;99.90;;;;;;5056782;28;20663;-78
2022/05/12 03:56:35;;;;;;;2.47;1.60;;;13.80;99.90;;;;;;5060527;28;20478;-78
2022/05/12 03:59:01;;;;;;;5.23;2.10;;;13.80;99.90;;;;;;5057237;28;20462;-77
2022/05/12 04:01:28;;;;;;;2.87;2.20;;;13.80;99.90;;;;;;5057986;28;20524;-78
2022/05/12 04:03:55;;;;;;;4.03;1.87;;;13.80;99.90;;;;;;5054092;28;20727;-77
2022/05/12 04:06:22;;;;;;;6.97;2.30;;;13.80;99.90;;;;;;5055019;28;20471;-78
2022/05/12 04:08:48;;;;;;;4.30;2.17;;;13.90;99.90;;;;;;5061793;28;20473;-77
2022/05/12 04:11:15;;;;;;;2.37;2.07;;;13.90;99.90;;;;;;5058067;28;20942;-77
2022/05/12 04:13:44;;;;;;;3.37;2.40;;;13.80;99.90;;;;;;5050081;28;20532;-76
2022/05/12 04:16:11;;;;;;;7.93;3.13;;;13.60;99.90;;;;;;5041811;28;21070;-77
2022/05/12 04:18:37;;;;;;;4.70;3.70;;;13.70;99.90;;;;;;5055340;28;20907;-77
2022/05/12 04:21:04;;;;;;;4.47;2.13;;;13.50;99.90;;;;;;5053894;28;20482;-77
2022/05/12 04:23:31;;;;;;;2.33;1.83;;;13.60;99.90;;;;;;5048034;28;20504;-75
2022/05/12 04:25:59;;;;;;;5.53;2.47;;;13.60;99.90;;;;;;5048718;28;21877;-77
2022/05/12 04:28:25;;;;;;;6.47;2.90;;;13.50;99.90;;;;;;5054748;28;20458;-77
2022/05/12 04:30:54;;;;;;;2.20;1.73;;;13.60;99.90;;;;;;5046895;28;20489;-78
2022/05/12 04:36:06;;;;;;;3.10;2.17;;;13.60;99.90;;;;;;5048196;28;20465;-77
2022/05/12 04:38:34;;;;;;;3.00;2.00;;;13.70;99.90;;;;;;5055979;28;20437;-76
2022/05/12 04:41:00;;;;;;;4.90;1.57;;;13.80;99.90;;;;;;5048780;28;20675;-75
2022/05/12 04:43:27;;;;;;;2.03;1.40;;;13.90;99.90;;;;;;5055980;28;20421;-76
2022/05/12 04:45:55;;;;;;;5.90;2.13;;;14.00;99.90;;;;;;5047330;28;20435;-77
2022/05/12 04:48:22;;;;;;;3.77;1.77;;;14.10;99.90;;;;;;5056482;28;20941;-76
2022/05/12 04:50:51;;;;;;;2.20;1.80;;;14.20;99.90;;;;;;5064369;28;20866;-77
2022/05/12 04:53:18;;;;;;;2.43;2.07;;;14.30;99.90;;;;;;5061687;28;20434;-77
2022/05/12 04:55:47;;;;;;;2.17;1.97;;;14.40;99.90;;;;;;5059885;28;20474;-78
2022/05/12 04:58:14;;;;;;;2.30;1.93;;;14.40;99.90;;;;;;5052690;28;20516;-76
2022/05/12 05:00:43;;;;;;;3.20;1.53;;;14.50;99.90;;;;;;5058648;28;20467;-77
2022/05/12 05:03:13;;;;;;;5.70;3.20;;;14.60;99.90;;;;;;5056394;28;20562;-77
2022/05/12 05:05:39;;;;;;;2.93;2.73;;;14.90;99.90;;;;;;5044893;28;20465;-76
2022/05/12 05:08:07;;;;;;;4.10;2.27;;;15.00;99.90;;;;;;5053527;28;20511;-77
2022/05/12 05:10:34;;;;;;;4.27;1.73;;;15.30;99.90;;;;;;5055638;28;20612;-76
2022/05/12 05:13:01;;;;;;;2.20;1.63;;;15.20;99.90;;;;;;5059604;28;20876;-76
2022/05/12 05:15:28;;;;;;;5.67;2.13;;;15.60;99.90;;;;;;5051110;28;20486;-76
2022/05/12 05:17:55;;;;;;;5.73;2.30;;;16.00;99.90;;;;;;5053797;28;20465;-77
2022/05/12 05:20:26;;;;;;;4.40;1.80;;;15.90;99.90;;;;;;5058431;28;20485;-76
2022/05/12 05:22:54;;;;;;;3.83;2.50;;;15.90;99.90;;;;;;5061283;28;20487;-77
2022/05/12 05:25:21;;;;;;;3.83;2.40;;;16.30;99.90;;;;;;5053817;28;20572;-76
2022/05/12 05:27:49;;;;;;;8.43;2.43;;;16.60;99.90;;;;;;5052658;28;20475;-77
2022/05/12 05:30:19;;;;;;;3.63;2.50;;;16.90;99.90;;;;;;5054304;28;20456;-76
2022/05/12 05:32:46;;;;;;;4.43;2.13;;;17.10;99.90;;;;;;5059194;28;20478;-77
2022/05/12 05:35:13;;;;;;;3.60;2.00;;;17.40;99.90;;;;;;5057345;28;20529;-77
2022/05/12 05:37:41;;;;;;;7.40;2.80;;;17.40;99.90;;;;;;5059176;28;20434;-77
2022/05/12 05:40:09;;;;;;;6.00;2.60;;;17.10;99.90;;;;;;5063280;28;20491;-77
2022/05/12 05:42:38;;;;;;;3.80;2.50;;;17.30;99.90;;;;;;5065287;28;20479;-77
2022/05/12 05:45:10;;;;;;;8.30;3.43;;;17.60;99.90;;;;;;5053328;28;20489;-76
2022/05/12 05:47:38;;;;;;;4.93;2.70;;;17.90;99.90;;;;;;5058507;28;20565;-77
2022/05/12 05:50:07;;;;;;;3.53;2.57;;;17.90;99.90;;;;;;5059345;28;20454;-79
2022/05/12 05:55:19;;;;;;;8.60;3.33;;;18.30;99.90;;;;;;5059813;28;20497;-78
2022/05/12 05:57:51;;;;;;;19.10;3.07;;;18.20;99.90;;;;;;5058538;28;20858;-78
2022/05/12 06:00:19;;;;;;;4.50;2.23;;;18.20;99.90;;;;;;5054386;28;20482;-78
2022/05/12 06:02:50;;;;;;;3.87;2.53;;;18.30;99.90;;;;;;5059964;28;20682;-79
2022/05/12 06:05:18;;;;;;;9.10;3.17;;;18.30;99.90;;;;;;5057728;28;20501;-79
2022/05/12 06:07:45;;;;;;;4.77;2.87;;;18.00;99.90;;;;;;5062513;28;20466;-79
2022/05/12 06:10:13;;;;;;;5.00;2.53;;;17.80;99.90;;;;;;5064489;28;20455;-77
2022/05/12 06:12:41;;;;;;;4.10;3.07;;;17.90;99.90;;;;;;5056970;28;20588;-78
2022/05/12 06:15:10;;;;;;;7.10;3.93;;;17.90;99.90;;;;;;5047642;28;21079;-78
2022/05/12 06:17:37;;;;;;;4.30;2.40;;;17.30;99.90;;;;;;5060222;28;20463;-77
2022/05/12 06:20:06;;;;;;;10.30;3.43;;;16.90;99.90;;;;;;5059606;28;20452;-79
2022/05/12 06:22:36;;;;;;;4.73;2.97;;;16.90;99.90;;;;;;5061314;28;22239;-79
2022/05/12 06:25:05;;;;;;;6.23;3.70;;;17.10;99.90;;;;;;5059945;28;20460;-79
2022/05/12 06:27:33;;;;;;;2.93;2.63;;;17.30;99.90;;;;;;5060620;28;20453;-79
2022/05/12 06:30:01;;;;;;;9.23;3.40;;;17.50;99.90;;;;;;5049667;28;20447;-79
2022/05/12 06:32:28;;;;;;;4.50;2.73;;;17.50;99.90;;;;;;5069361;28;20875;-78
2022/05/12 06:34:55;;;;;;;6.03;3.40;;;17.20;99.90;;;;;;5061736;28;20482;-79
2022/05/12 06:37:22;;;;;;;6.40;3.07;;;17.10;99.90;;;;;;5053509;28;20537;-79
2022/05/12 06:39:49;;;;;;;10.00;3.73;;;17.40;99.90;;;;;;5060184;28;20534;-79
2022/05/12 06:42:15;;;;;;;3.13;2.73;;;17.70;99.90;;;;;;5057238;28;20590;-79
2022/05/12 06:44:42;;;;;;;6.57;2.70;;;18.40;99.90;;;;;;5058022;28;20865;-79
2022/05/12 06:47:12;;;;;;;6.83;2.67;;;18.80;99.90;;;;;;5058351;28;20956;-78
2022/05/12 06:49:39;;;;;;;6.30;2.93;;;19.00;99.90;;;;;;5064177;28;22237;-78
2022/05/12 06:52:07;;;;;;;4.53;3.70;;;19.30;99.90;;;;;;5061816;28;20478;-79
2022/05/12 06:54:34;;;;;;;4.90;3.20;;;19.60;99.90;;;;;;5056691;28;20484;-79
2022/05/12 06:57:01;;;;;;;4.80;3.47;;;19.20;99.90;;;;;;5055269;28;20456;-78
2022/05/12 06:59:28;;;;;;;6.30;4.30;;;19.30;99.90;;;;;;5055383;28;20677;-79
2022/05/12 07:01:55;;;;;;;5.23;4.43;;;19.80;99.90;;;;;;5053064;28;20588;-78
2022/05/12 07:04:24;;;;;;;5.43;4.03;;;19.90;99.90;;;;;;5051847;28;20486;-78
2022/05/12 07:06:51;;;;;;;4.97;4.47;;;20.30;99.90;;;;;;5053009;28;20476;-78
2022/05/12 07:09:19;;;;;;;4.90;3.90;;;20.40;99.90;;;;;;5061986;28;20512;-79
2022/05/12 07:11:47;;;;;;;5.07;4.10;;;20.40;99.90;;;;;;5054475;28;20906;-79
2022/05/12 07:14:15;;;;;;;6.53;4.63;;;19.90;99.90;;;;;;5062365;28;20479;-79
2022/05/12 07:16:42;;;;;;;4.50;3.63;;;20.10;99.90;;;;;;5070787;28;20481;-79
2022/05/12 07:19:11;;;;;;;6.63;4.30;;;20.60;99.90;;;;;;5071429;28;20473;-79
2022/05/12 07:27:08;;;;;;;6.77;5.10;;;18.80;99.90;;;;;;5057985;28;20446;-79
2022/05/12 07:29:35;;;;;;;8.60;5.50;;;18.50;99.90;;;;;;5050750;28;20459;-79
2022/05/12 07:32:02;;;;;;;9.70;5.60;;;19.00;99.90;;;;;;5057876;28;21002;-79
2022/05/12 07:37:47;;;;;;;7.33;3.97;;;19.90;99.90;;;;;;5046042;28;20807;-80
2022/05/12 07:43:21;;;;;;;9.03;6.27;;;21.20;99.90;;;;;;5013181;28;20499;-82
2022/05/12 07:45:49;;;;;;;9.20;3.23;;;21.50;99.90;;;;;;5056907;28;20549;-78
2022/05/12 07:48:16;;;;;;;4.20;3.47;;;21.90;99.90;;;;;;5054546;28;20546;-80
2022/05/12 07:50:43;;;;;;;3.70;3.40;;;21.80;99.90;;;;;;5061624;28;20491;-80
2022/05/12 07:53:11;;;;;;;5.93;3.93;;;22.10;99.90;;;;;;5051841;28;20875;-78
2022/05/12 07:55:38;;;;;;;4.93;3.20;;;22.10;99.90;;;;;;5062663;28;20800;-80
2022/05/12 07:58:06;;;;;;;6.10;3.17;;;22.30;99.90;;;;;;5066473;28;20496;-80
2022/05/12 08:00:42;;;;;;;4.90;3.27;;;22.90;99.90;;;;;;5058841;28;20457;-78
2022/05/12 08:03:09;;;;;;;5.37;3.77;;;22.00;99.90;;;;;;5066690;28;20614;-79
2022/05/12 08:05:36;;;;;;;3.80;2.50;;;22.00;99.90;;;;;;5059896;28;20460;-78
2022/05/12 08:08:04;;;;;;;3.93;2.90;;;22.60;99.90;;;;;;5066704;28;20820;-79
2022/05/12 08:10:33;;;;;;;5.50;3.30;;;21.60;99.90;;;;;;5070194;28;20488;-78
2022/05/12 08:12:59;;;;;;;3.30;2.97;;;21.30;99.90;;;;;;5069477;28;20491;-79
2022/05/12 08:15:26;;;;;;;4.90;3.10;;;21.70;99.90;;;;;;5065663;28;20491;-78
2022/05/12 08:17:53;;;;;;;4.60;2.90;;;21.60;99.90;;;;;;5062282;28;21065;-79
2022/05/12 08:20:20;;;;;;;2.47;2.27;;;22.10;99.90;;;;;;5064515;28;20452;-80
2022/05/12 08:22:47;;;;;;;7.70;5.23;;;23.00;99.90;;;;;;5062968;28;20478;-78
2022/05/12 08:25:15;;;;;;;4.60;3.30;;;23.40;99.90;;;;;;5069425;28;20517;-79
2022/05/12 08:27:43;;;;;;;5.90;3.27;;;23.20;99.90;;;;;;5065797;28;20964;-79
2022/05/12 08:30:15;;;;;;;3.67;3.20;;;23.20;99.90;;;;;;5057599;28;20867;-79
2022/05/12 08:32:42;;;;;;;4.83;2.93;;;22.50;99.90;;;;;;5066563;28;20483;-77
2022/05/12 08:35:09;;;;;;;3.10;2.80;;;22.10;99.90;;;;;;5064775;28;20548;-79
2022/05/12 08:37:37;;;;;;;6.47;3.10;;;22.30;99.90;;;;;;5071669;28;20451;-77
2022/05/12 08:40:05;;;;;;;5.20;3.70;;;21.40;99.90;;;;;;5062927;28;20466;-79
2022/05/12 08:42:34;;;;;;;4.20;3.80;;;20.90;99.90;;;;;;5066253;28;22065;-77
2022/05/12 08:45:05;;;;;;;5.97;3.87;;;20.60;99.90;;;;;;5061262;28;20468;-78
2022/05/12 08:47:35;;;;;;;5.87;4.50;;;20.50;99.90;;;;;;5058365;28;20467;-79
2022/05/12 08:50:03;;;;;;;7.10;4.50;;;20.30;99.90;;;;;;5063101;28;20472;-77
2022/05/12 08:52:38;;;;;;;5.67;4.20;;;20.50;99.90;;;;;;5064556;28;20492;-79
2022/05/12 08:55:13;;;;;;;5.80;4.70;;;21.10;99.90;;;;;;5066555;28;20567;-79
2022/05/12 08:57:46;;;;;;;6.10;5.10;;;21.50;99.90;;;;;;5066778;28;20476;-78
2022/05/12 09:00:20;;;;;;;4.43;4.03;;;20.90;99.90;;;;;;5061902;28;20494;-78
2022/05/12 09:03:01;;;;;;;9.77;4.73;;;20.30;99.90;;;;;;5065883;28;20483;-78
2022/05/12 09:05:30;;;;;;;4.73;4.33;;;20.30;99.90;;;;;;5069879;28;20487;-79
2022/05/12 09:08:16;;;;;;;6.40;5.33;;;21.60;99.90;;;;;;5064861;28;20451;-79
2022/05/12 09:10:54;;;;;;;8.97;4.63;;;22.40;99.90;;;;;;5072238;28;20459;-79
2022/05/12 09:13:25;;;;;;;5.30;4.57;;;22.00;99.90;;;;;;5061924;28;20500;-78
2022/05/12 09:16:03;;;;;;;8.60;3.90;;;21.80;99.90;;;;;;5059287;28;21000;-79
2022/05/12 09:18:34;;;;;;;7.43;4.47;;;21.40;99.90;;;;;;5062164;28;20467;-79
2022/05/12 09:21:02;;;;;;;6.67;4.83;;;21.00;99.90;;;;;;5062833;28;20459;-78
2022/05/12 09:23:29;;;;;;;4.80;4.30;;;21.60;99.90;;;;;;5065042;28;20533;-79
2022/05/12 09:25:56;;;;;;;8.87;4.20;;;23.10;99.90;;;;;;5068198;28;20491;-78
2022/05/12 09:28:28;;;;;;;5.07;4.53;;;24.30;99.90;;;;;;5072302;28;20464;-77
2022/05/12 09:30:59;;;;;;;4.30;3.63;;;24.70;99.50;;;;;;5061927;28;20481;-77
2022/05/12 09:33:31;;;;;;;5.43;4.30;;;23.90;99.80;;;;;;5063507;28;20527;-78
2022/05/12 09:35:59;;;;;;;4.60;3.40;;;22.90;99.90;;;;;;5064124;28;20479;-79
2022/05/12 09:38:27;;;;;;;8.80;4.40;;;21.60;99.90;;;;;;5072828;28;20513;-78
2022/05/12 09:40:55;;;;;;;4.60;4.13;;;21.10;99.90;;;;;;5064555;28;20452;-78
2022/05/12 09:43:28;;;;;;;6.13;3.97;;;20.90;99.90;;;;;;5061365;28;20496;-78
2022/05/12 09:46:06;;;;;;;3.53;3.23;;;22.20;99.90;;;;;;5062377;28;20546;-78
2022/05/12 09:48:34;;;;;;;6.40;3.80;;;23.90;99.90;;;;;;5063323;28;20849;-79
2022/05/12 09:51:30;;;;;;;5.83;4.23;;;24.70;99.20;;;;;;5063057;28;20449;-77
2022/05/12 09:54:25;;;;;;;4.77;3.97;;;24.90;96.30;;;;;;5064316;28;20457;-78
2022/05/12 09:57:08;;;;;;;5.00;3.90;;;24.40;96.70;;;;;;5068020;28;20492;-77
2022/05/12 09:59:34;;;;;;;5.13;4.00;;;23.70;97.50;;;;;;5059810;28;20458;-78
2022/05/12 10:08:11;;;;;;;5.57;3.70;;;21.80;98.90;;;;;;5057469;28;20487;-76
2022/05/12 10:10:39;;;;;;;5.07;3.60;;;22.20;99.20;;;;;;5066364;28;20459;-77
2022/05/12 10:13:14;;;;;;;5.13;4.73;;;22.30;97.80;;;;;;5061843;28;20514;-77
2022/05/12 10:15:42;;;;;;;6.37;3.50;;;21.80;99.30;;;;;;5062313;28;20498;-79
2022/05/12 10:18:29;;;;;;;6.70;4.10;;;22.20;99.50;;;;;;5069970;28;20487;-78
2022/05/12 10:21:03;;;;;;;6.10;3.63;;;22.40;97.70;;;;;;5064209;28;20497;-78
2022/05/12 10:23:38;;;;;;;4.97;3.30;;;22.20;96.80;;;;;;5057578;28;20471;-78
2022/05/12 10:26:11;;;;;;;3.47;2.93;;;22.00;98.30;;;;;;5060288;28;20459;-78
2022/05/12 10:28:52;;;;;;;8.27;4.17;;;22.80;97.50;;;;;;5067533;28;20453;-77
2022/05/12 10:31:27;;;;;;;7.23;4.40;;;24.10;97.60;;;;;;5059979;28;20970;-79
2022/05/12 10:34:05;;;;;;;6.00;3.83;;;25.00;94.50;;;;;;5061877;28;20518;-79
2022/05/12 10:36:45;;;;;;;5.83;3.80;;;25.40;92.70;;;;;;5060690;28;20489;-79
2022/05/12 10:39:21;;;;;;;4.50;4.20;;;26.20;92.10;;;;;;5065348;28;20465;-79
2022/05/12 10:42:00;;;;;;;4.93;3.90;;;27.00;88.50;;;;;;5062511;28;20790;-78
2022/05/12 10:44:44;;;;;;;7.10;4.33;;;26.90;84.90;;;;;;5066522;28;20464;-78
2022/05/12 10:47:19;;;;;;;5.43;4.37;;;25.30;89.60;;;;;;5065107;28;20460;-79
2022/05/12 10:49:59;;;;;;;7.90;4.97;;;23.80;91.30;;;;;;5059208;28;20460;-79
2022/05/12 10:52:35;;;;;;;4.50;3.80;;;23.00;93.70;;;;;;5063766;28;21007;-78
2022/05/12 10:55:21;;;;;;;5.73;4.10;;;22.40;94.20;;;;;;5056996;28;20513;-79
2022/05/12 10:57:58;;;;;;;4.57;3.00;;;22.20;94.50;;;;;;5064482;28;21177;-79
2022/05/12 11:00:43;;;;;;;10.30;3.50;;;22.20;94.40;;;;;;5057823;28;20543;-78
2022/05/12 11:03:18;;;;;;;5.57;4.43;;;23.10;95.60;;;;;;5058559;28;21010;-79
2022/05/12 11:05:51;;;;;;;4.83;3.60;;;24.20;92.10;;;;;;5062737;28;20455;-78
2022/05/12 11:08:22;;;;;;;5.77;3.77;;;23.40;92.00;;;;;;5066495;28;20471;-77
2022/05/12 11:10:52;;;;;;;4.27;3.57;;;22.90;93.00;;;;;;5069672;28;20475;-78
2022/05/12 11:13:24;;;;;;;7.57;3.77;;;22.20;93.80;;;;;;5059305;28;21022;-79
2022/05/12 11:15:58;;;;;;;5.17;3.23;;;21.80;95.10;;;;;;5062155;28;20548;-76
2022/05/12 11:18:32;;;;;;;4.00;3.47;;;21.50;95.10;;;;;;5061131;28;20461;-78
2022/05/12 11:21:06;;;;;;;4.10;3.63;;;21.50;95.00;;;;;;5055598;28;20779;-79
2022/05/12 11:23:44;;;;;;;5.30;4.10;;;22.20;96.50;;;;;;5060831;28;20479;-78
2022/05/12 11:26:19;;;;;;;4.20;3.80;;;23.60;94.60;;;;;;5065164;28;20486;-78
2022/05/12 11:31:44;;;;;;;3.93;3.30;;;24.60;91.50;;;;;;5069444;28;20514;-78
2022/05/12 11:34:17;;;;;;;3.87;3.57;;;25.10;87.50;;;;;;5059268;28;20455;-77
2022/05/12 11:36:47;;;;;;;6.47;4.30;;;24.60;87.90;;;;;;5071976;28;20826;-78
2022/05/12 11:39:24;;;;;;;7.60;3.40;;;24.00;87.80;;;;;;5059435;28;20547;-79
2022/05/12 11:42:10;;;;;;;3.83;3.53;;;23.60;88.80;;;;;;5069731;28;21041;-78
2022/05/12 11:44:45;;;;;;;6.70;2.80;;;23.70;87.50;;;;;;5065244;28;20453;-78
2022/05/12 11:47:44;;;;;;;2.83;2.50;;;24.10;87.40;;;;;;5072331;28;20504;-77
2022/05/12 11:50:31;;;;;;;4.97;3.87;;;24.90;84.50;;;;;;5064234;28;20455;-78
2022/05/12 11:55:35;;;;;;;5.73;3.30;;;25.40;80.30;;;;;;5029918;28;20584;-76
2022/05/12 11:58:07;;;;;;;5.83;3.23;;;25.00;84.40;;;;;;5041299;28;20511;-77
2022/05/12 12:00:56;;;;;;;4.90;3.13;;;25.60;83.10;;;;;;5041635;28;20457;-77
2022/05/12 12:03:55;;;;;;;3.67;2.50;;;25.00;77.60;;;;;;5038177;28;20487;-76
2022/05/12 12:06:45;;;;;;;6.03;3.00;;;24.60;78.80;;;;;;5040924;28;20463;-76
2022/05/12 12:09:33;;;;;;;5.40;2.90;;;24.40;78.40;;;;;;5038270;28;20473;-75
2022/05/12 12:12:03;;;;;;;5.20;2.77;;;25.00;76.20;;;;;;5036773;28;21195;-77
2022/05/12 12:14:58;;;;;;;6.77;2.37;;;25.60;77.20;;;;;;5042897;28;20484;-75
2022/05/12 12:17:34;;;;;;;4.63;3.03;;;25.70;72.50;;;;;;5054602;28;20477;-76
2022/05/12 12:20:08;;;;;;;4.33;3.37;;;24.80;70.60;;;;;;5053172;28;20449;-76
2022/05/12 12:22:45;;;;;;;3.40;2.30;;;24.20;71.40;;;;;;5053617;28;20449;-76
2022/05/12 12:25:31;;;;;;;5.47;2.80;;;23.50;72.60;;;;;;5055695;28;20460;-78
2022/05/12 12:28:16;;;;;;;4.30;2.53;;;22.80;74.00;;;;;;5051616;28;20461;-77
2022/05/12 12:31:03;;;;;;;4.33;2.70;;;22.80;74.70;;;;;;5042071;28;20574;-78
2022/05/12 12:33:59;;;;;;;6.10;2.37;;;23.30;76.30;;;;;;5044802;28;20558;-78
2022/05/12 12:37:06;;;;;;;2.90;2.20;;;24.60;76.80;;;;;;5037108;28;20485;-78
2022/05/12 12:39:39;;;;;;;3.03;2.47;;;24.50;74.80;;;;;;5033402;28;20488;-77
2022/05/12 12:42:22;;;;;;;6.07;3.20;;;23.70;75.20;;;;;;5037404;28;20461;-77
2022/05/12 12:44:53;;;;;;;4.07;2.83;;;23.40;75.60;;;;;;5042110;28;20489;-76
2022/05/12 12:47:31;;;;;;;3.80;2.00;;;23.60;74.10;;;;;;5036930;28;20462;-77
2022/05/12 12:50:14;;;;;;;5.50;3.27;;;23.40;74.20;;;;;;5038822;28;20461;-77
2022/05/12 12:52:43;;;;;;;5.07;2.53;;;23.30;75.00;;;;;;5035916;28;20931;-77
2022/05/12 12:58:04;;;;;;;4.60;2.33;;;23.70;76.00;;;;;;5042008;28;20884;-77
2022/05/12 13:00:35;;;;;;;4.43;3.20;;;24.50;75.80;;;;;;5039979;28;20454;-77
2022/05/12 13:03:04;;;;;;;3.80;2.80;;;23.90;75.90;;;;;;5037202;28;20472;-78
2022/05/12 13:05:32;;;;;;;6.80;3.43;;;23.40;75.00;;;;;;5043431;28;20461;-78
2022/05/12 13:08:01;;;;;;;7.70;3.33;;;23.50;77.40;;;;;;5036823;28;20445;-77
2022/05/12 13:10:31;;;;;;;4.57;2.80;;;23.40;76.90;;;;;;5042738;28;20481;-77
2022/05/12 13:13:01;;;;;;;4.10;2.80;;;23.10;77.30;;;;;;5039787;28;20453;-76
2022/05/12 13:15:30;;;;;;;3.53;2.97;;;23.40;78.40;;;;;;5044542;28;20456;-75
2022/05/12 13:18:01;;;;;;;4.80;3.30;;;23.60;77.50;;;;;;5047992;28;20585;-75
2022/05/12 13:20:32;;;;;;;4.60;3.10;;;23.40;79.10;;;;;;5051303;28;21277;-77
2022/05/12 13:23:05;;;;;;;3.83;3.40;;;23.70;79.00;;;;;;5045169;28;20461;-76
2022/05/12 13:25:36;;;;;;;4.63;3.60;;;23.70;78.10;;;;;;5040106;28;20917;-76
2022/05/12 13:28:05;;;;;;;7.87;4.27;;;23.40;77.10;;;;;;5038528;28;20544;-76
2022/05/12 13:30:37;;;;;;;3.77;3.30;;;23.20;78.60;;;;;;5040539;28;21272;-75
2022/05/12 13:33:11;;;;;;;8.10;3.77;;;23.90;80.60;;;;;;5038719;28;20456;-76
2022/05/12 13:35:39;;;;;;;4.90;3.63;;;24.30;78.80;;;;;;5043473;28;20457;-77
2022/05/12 13:38:10;;;;;;;4.87;3.23;;;24.80;79.10;;;;;;5043679;28;20480;-77